sensor_id;sensor_type;location;lat;lon;timestamp;P1;durP1;ratioP1;P2;durP2;ratioP2
17997;SDS011;9124;48.144;17.098;2023-07-20T00:03:09;4.85;;;3.85;;
17997;SDS011;9124;48.144;17.098;2023-07-20T00:07:42;4.00;;;3.70;;
17997;SDS011;9124;48.144;17.098;2023-07-20T00:12:08;4.50;;;4.07;;
17997;SDS011;9124;48.144;17.098;2023-07-20T00:16:35;5.35;;;4.82;;
17997;SDS011;9124;48.144;17.098;2023-07-20T00:21:01;4.22;;;3.92;;
17997;SDS011;9124;48.144;17.098;2023-07-20T00:25:28;6.88;;;3.88;;
17997;SDS011;9124;48.144;17.098;2023-07-20T00:29:55;4.60;;;4.20;;
17997;SDS011;9124;48.144;17.098;2023-07-20T00:34:21;4.35;;;4.05;;
17997;SDS011;9124;48.144;17.098;2023-07-20T00:38:48;4.75;;;4.30;;
17997;SDS011;9124;48.144;17.098;2023-07-20T00:43:16;4.60;;;4.22;;
17997;SDS011;9124;48.144;17.098;2023-07-20T00:47:42;4.63;;;4.00;;
17997;SDS011;9124;48.144;17.098;2023-07-20T00:52:10;8.43;;;4.40;;
17997;SDS011;9124;48.144;17.098;2023-07-20T00:56:38;4.72;;;4.35;;
17997;SDS011;9124;48.144;17.098;2023-07-20T01:01:05;6.95;;;4.40;;
17997;SDS011;9124;48.144;17.098;2023-07-20T01:05:43;4.55;;;4.15;;
17997;SDS011;9124;48.144;17.098;2023-07-20T01:10:25;6.13;;;4.57;;
17997;SDS011;9124;48.144;17.098;2023-07-20T01:14:54;5.43;;;4.25;;
17997;SDS011;9124;48.144;17.098;2023-07-20T01:19:21;4.95;;;4.65;;
17997;SDS011;9124;48.144;17.098;2023-07-20T01:28:44;5.00;;;4.53;;
17997;SDS011;9124;48.144;17.098;2023-07-20T01:33:37;5.47;;;4.30;;
17997;SDS011;9124;48.144;17.098;2023-07-20T01:38:07;5.32;;;4.57;;
17997;SDS011;9124;48.144;17.098;2023-07-20T01:42:34;5.13;;;4.70;;
17997;SDS011;9124;48.144;17.098;2023-07-20T01:47:01;4.50;;;4.20;;
17997;SDS011;9124;48.144;17.098;2023-07-20T01:51:27;5.03;;;4.47;;
17997;SDS011;9124;48.144;17.098;2023-07-20T01:55:53;5.32;;;4.82;;
17997;SDS011;9124;48.144;17.098;2023-07-20T02:00:20;5.50;;;5.03;;
17997;SDS011;9124;48.144;17.098;2023-07-20T02:04:50;5.13;;;4.72;;
17997;SDS011;9124;48.144;17.098;2023-07-20T02:09:16;6.10;;;4.97;;
17997;SDS011;9124;48.144;17.098;2023-07-20T02:13:43;4.90;;;4.50;;
17997;SDS011;9124;48.144;17.098;2023-07-20T02:18:09;5.82;;;5.32;;
17997;SDS011;9124;48.144;17.098;2023-07-20T02:22:38;5.18;;;4.65;;
17997;SDS011;9124;48.144;17.098;2023-07-20T02:27:05;5.20;;;4.70;;
17997;SDS011;9124;48.144;17.098;2023-07-20T02:31:33;5.35;;;4.75;;
17997;SDS011;9124;48.144;17.098;2023-07-20T02:36:00;4.90;;;4.45;;
17997;SDS011;9124;48.144;17.098;2023-07-20T02:40:26;5.38;;;4.85;;
17997;SDS011;9124;48.144;17.098;2023-07-20T02:44:53;4.82;;;4.47;;
17997;SDS011;9124;48.144;17.098;2023-07-20T02:49:20;6.80;;;4.82;;
17997;SDS011;9124;48.144;17.098;2023-07-20T02:53:46;5.55;;;5.05;;
17997;SDS011;9124;48.144;17.098;2023-07-20T02:58:12;5.20;;;4.72;;
17997;SDS011;9124;48.144;17.098;2023-07-20T03:02:42;6.03;;;4.80;;
17997;SDS011;9124;48.144;17.098;2023-07-20T03:07:08;7.68;;;4.97;;
17997;SDS011;9124;48.144;17.098;2023-07-20T03:11:35;5.25;;;4.85;;
17997;SDS011;9124;48.144;17.098;2023-07-20T03:16:02;5.75;;;5.35;;
17997;SDS011;9124;48.144;17.098;2023-07-20T03:20:28;5.43;;;4.72;;
17997;SDS011;9124;48.144;17.098;2023-07-20T03:24:56;9.15;;;5.07;;
17997;SDS011;9124;48.144;17.098;2023-07-20T03:29:22;5.32;;;4.93;;
17997;SDS011;9124;48.144;17.098;2023-07-20T03:33:49;5.90;;;5.30;;
17997;SDS011;9124;48.144;17.098;2023-07-20T03:38:17;11.40;;;5.30;;
17997;SDS011;9124;48.144;17.098;2023-07-20T03:42:44;5.07;;;4.68;;
17997;SDS011;9124;48.144;17.098;2023-07-20T03:47:10;5.47;;;5.07;;
17997;SDS011;9124;48.144;17.098;2023-07-20T03:51:37;5.50;;;5.00;;
17997;SDS011;9124;48.144;17.098;2023-07-20T03:56:03;11.60;;;4.70;;
17997;SDS011;9124;48.144;17.098;2023-07-20T04:00:30;6.00;;;5.07;;
17997;SDS011;9124;48.144;17.098;2023-07-20T04:04:56;6.30;;;5.10;;
17997;SDS011;9124;48.144;17.098;2023-07-20T04:09:22;7.50;;;5.25;;
17997;SDS011;9124;48.144;17.098;2023-07-20T04:20:08;7.07;;;5.10;;
17997;SDS011;9124;48.144;17.098;2023-07-20T04:24:35;5.70;;;5.18;;
17997;SDS011;9124;48.144;17.098;2023-07-20T04:29:04;5.70;;;4.90;;
17997;SDS011;9124;48.144;17.098;2023-07-20T04:33:38;5.28;;;4.85;;
17997;SDS011;9124;48.144;17.098;2023-07-20T04:38:04;5.95;;;5.40;;
17997;SDS011;9124;48.144;17.098;2023-07-20T04:42:31;5.50;;;4.82;;
17997;SDS011;9124;48.144;17.098;2023-07-20T04:46:57;8.40;;;5.57;;
17997;SDS011;9124;48.144;17.098;2023-07-20T04:51:24;5.43;;;4.97;;
17997;SDS011;9124;48.144;17.098;2023-07-20T04:55:53;5.90;;;5.30;;
17997;SDS011;9124;48.144;17.098;2023-07-20T05:00:23;10.75;;;4.72;;
17997;SDS011;9124;48.144;17.098;2023-07-20T05:04:50;7.80;;;5.05;;
17997;SDS011;9124;48.144;17.098;2023-07-20T05:09:17;11.00;;;5.00;;
17997;SDS011;9124;48.144;17.098;2023-07-20T05:13:43;5.75;;;4.60;;
17997;SDS011;9124;48.144;17.098;2023-07-20T05:18:09;6.28;;;4.78;;
17997;SDS011;9124;48.144;17.098;2023-07-20T05:22:36;8.32;;;4.60;;
17997;SDS011;9124;48.144;17.098;2023-07-20T05:27:06;5.25;;;4.60;;
17997;SDS011;9124;48.144;17.098;2023-07-20T05:31:32;10.45;;;5.22;;
17997;SDS011;9124;48.144;17.098;2023-07-20T05:35:59;4.35;;;4.05;;
17997;SDS011;9124;48.144;17.098;2023-07-20T05:40:25;6.43;;;4.60;;
17997;SDS011;9124;48.144;17.098;2023-07-20T05:44:52;4.43;;;4.13;;
17997;SDS011;9124;48.144;17.098;2023-07-20T05:49:19;7.32;;;4.60;;
17997;SDS011;9124;48.144;17.098;2023-07-20T05:53:46;10.73;;;4.28;;
17997;SDS011;9124;48.144;17.098;2023-07-20T06:02:57;6.90;;;4.45;;
17997;SDS011;9124;48.144;17.098;2023-07-20T06:07:23;5.82;;;4.40;;
17997;SDS011;9124;48.144;17.098;2023-07-20T06:11:50;6.50;;;4.13;;
17997;SDS011;9124;48.144;17.098;2023-07-20T06:16:17;9.88;;;4.22;;
17997;SDS011;9124;48.144;17.098;2023-07-20T06:20:48;8.18;;;4.22;;
17997;SDS011;9124;48.144;17.098;2023-07-20T06:25:18;4.13;;;3.65;;
17997;SDS011;9124;48.144;17.098;2023-07-20T06:29:44;5.95;;;3.53;;
17997;SDS011;9124;48.144;17.098;2023-07-20T06:34:10;5.25;;;3.38;;
17997;SDS011;9124;48.144;17.098;2023-07-20T06:38:37;3.50;;;2.88;;
17997;SDS011;9124;48.144;17.098;2023-07-20T06:43:03;6.70;;;2.88;;
17997;SDS011;9124;48.144;17.098;2023-07-20T06:47:29;2.97;;;2.65;;
17997;SDS011;9124;48.144;17.098;2023-07-20T06:51:56;3.47;;;3.17;;
17997;SDS011;9124;48.144;17.098;2023-07-20T06:56:22;4.53;;;3.10;;
17997;SDS011;9124;48.144;17.098;2023-07-20T07:00:49;4.00;;;2.55;;
17997;SDS011;9124;48.144;17.098;2023-07-20T07:05:15;6.15;;;2.75;;
17997;SDS011;9124;48.144;17.098;2023-07-20T07:09:42;3.10;;;2.70;;
17997;SDS011;9124;48.144;17.098;2023-07-20T07:14:08;4.13;;;2.85;;
17997;SDS011;9124;48.144;17.098;2023-07-20T07:18:34;4.60;;;3.00;;
17997;SDS011;9124;48.144;17.098;2023-07-20T07:23:01;3.03;;;2.72;;
17997;SDS011;9124;48.144;17.098;2023-07-20T07:27:27;2.30;;;2.10;;
17997;SDS011;9124;48.144;17.098;2023-07-20T07:31:53;2.88;;;2.20;;
17997;SDS011;9124;48.144;17.098;2023-07-20T07:36:21;4.10;;;2.53;;
17997;SDS011;9124;48.144;17.098;2023-07-20T07:40:50;5.93;;;2.55;;
17997;SDS011;9124;48.144;17.098;2023-07-20T07:45:16;2.55;;;2.35;;
17997;SDS011;9124;48.144;17.098;2023-07-20T07:49:43;3.58;;;2.75;;
17997;SDS011;9124;48.144;17.098;2023-07-20T07:54:09;7.28;;;2.70;;
17997;SDS011;9124;48.144;17.098;2023-07-20T07:58:36;3.85;;;2.97;;
17997;SDS011;9124;48.144;17.098;2023-07-20T08:03:03;3.40;;;2.35;;
17997;SDS011;9124;48.144;17.098;2023-07-20T08:07:29;4.68;;;2.80;;
17997;SDS011;9124;48.144;17.098;2023-07-20T08:11:56;3.10;;;2.78;;
17997;SDS011;9124;48.144;17.098;2023-07-20T08:16:22;2.70;;;2.50;;
17997;SDS011;9124;48.144;17.098;2023-07-20T08:20:48;7.15;;;2.88;;
17997;SDS011;9124;48.144;17.098;2023-07-20T08:25:15;3.85;;;2.55;;
17997;SDS011;9124;48.144;17.098;2023-07-20T08:29:42;4.38;;;2.40;;
17997;SDS011;9124;48.144;17.098;2023-07-20T08:34:08;2.45;;;2.25;;
17997;SDS011;9124;48.144;17.098;2023-07-20T08:38:35;4.05;;;2.83;;
17997;SDS011;9124;48.144;17.098;2023-07-20T08:47:54;11.48;;;2.17;;
17997;SDS011;9124;48.144;17.098;2023-07-20T08:52:24;2.67;;;2.20;;
17997;SDS011;9124;48.144;17.098;2023-07-20T08:56:51;2.42;;;2.30;;
17997;SDS011;9124;48.144;17.098;2023-07-20T09:01:17;2.65;;;2.40;;
17997;SDS011;9124;48.144;17.098;2023-07-20T09:05:45;2.50;;;2.30;;
17997;SDS011;9124;48.144;17.098;2023-07-20T09:10:12;2.85;;;2.40;;
17997;SDS011;9124;48.144;17.098;2023-07-20T09:14:38;3.80;;;2.63;;
17997;SDS011;9124;48.144;17.098;2023-07-20T09:19:05;3.45;;;2.53;;
17997;SDS011;9124;48.144;17.098;2023-07-20T09:23:32;2.85;;;2.30;;
17997;SDS011;9124;48.144;17.098;2023-07-20T09:28:02;2.47;;;2.22;;
17997;SDS011;9124;48.144;17.098;2023-07-20T09:32:30;4.93;;;2.30;;
17997;SDS011;9124;48.144;17.098;2023-07-20T09:36:57;2.85;;;2.30;;
17997;SDS011;9124;48.144;17.098;2023-07-20T09:41:26;2.03;;;1.92;;
17997;SDS011;9124;48.144;17.098;2023-07-20T09:45:53;4.25;;;2.10;;
17997;SDS011;9124;48.144;17.098;2023-07-20T09:50:24;2.90;;;2.53;;
17997;SDS011;9124;48.144;17.098;2023-07-20T09:54:51;2.88;;;2.60;;
17997;SDS011;9124;48.144;17.098;2023-07-20T09:59:18;4.10;;;2.58;;
17997;SDS011;9124;48.144;17.098;2023-07-20T10:03:45;3.83;;;2.47;;
17997;SDS011;9124;48.144;17.098;2023-07-20T10:08:12;7.43;;;2.45;;
17997;SDS011;9124;48.144;17.098;2023-07-20T10:12:42;2.67;;;2.30;;
17997;SDS011;9124;48.144;17.098;2023-07-20T10:17:11;2.67;;;2.30;;
17997;SDS011;9124;48.144;17.098;2023-07-20T10:21:42;2.80;;;2.15;;
17997;SDS011;9124;48.144;17.098;2023-07-20T10:26:13;4.63;;;2.70;;
17997;SDS011;9124;48.144;17.098;2023-07-20T10:30:43;3.38;;;2.50;;
17997;SDS011;9124;48.144;17.098;2023-07-20T10:35:13;2.95;;;2.45;;
17997;SDS011;9124;48.144;17.098;2023-07-20T10:39:41;2.80;;;2.60;;
17997;SDS011;9124;48.144;17.098;2023-07-20T10:44:08;3.60;;;3.25;;
17997;SDS011;9124;48.144;17.098;2023-07-20T10:48:36;3.20;;;2.75;;
17997;SDS011;9124;48.144;17.098;2023-07-20T10:53:32;3.50;;;3.20;;
17997;SDS011;9124;48.144;17.098;2023-07-20T10:58:09;5.35;;;3.10;;
17997;SDS011;9124;48.144;17.098;2023-07-20T11:07:09;6.25;;;3.28;;
17997;SDS011;9124;48.144;17.098;2023-07-20T11:11:49;9.23;;;2.60;;
17997;SDS011;9124;48.144;17.098;2023-07-20T11:16:15;3.20;;;2.85;;
17997;SDS011;9124;48.144;17.098;2023-07-20T11:20:42;5.53;;;2.72;;
17997;SDS011;9124;48.144;17.098;2023-07-20T11:25:10;3.67;;;3.05;;
17997;SDS011;9124;48.144;17.098;2023-07-20T11:29:37;7.03;;;2.92;;
17997;SDS011;9124;48.144;17.098;2023-07-20T11:34:04;2.95;;;2.45;;
17997;SDS011;9124;48.144;17.098;2023-07-20T11:38:30;3.20;;;2.63;;
17997;SDS011;9124;48.144;17.098;2023-07-20T11:42:58;2.88;;;2.67;;
17997;SDS011;9124;48.144;17.098;2023-07-20T11:47:24;2.88;;;2.53;;
17997;SDS011;9124;48.144;17.098;2023-07-20T11:51:56;2.67;;;2.47;;
17997;SDS011;9124;48.144;17.098;2023-07-20T11:56:24;3.60;;;3.00;;
17997;SDS011;9124;48.144;17.098;2023-07-20T12:00:52;7.90;;;3.00;;
17997;SDS011;9124;48.144;17.098;2023-07-20T12:05:22;2.90;;;2.70;;
17997;SDS011;9124;48.144;17.098;2023-07-20T12:10:08;6.25;;;2.88;;
17997;SDS011;9124;48.144;17.098;2023-07-20T12:14:38;3.42;;;2.78;;
17997;SDS011;9124;48.144;17.098;2023-07-20T12:19:06;3.28;;;2.97;;
17997;SDS011;9124;48.144;17.098;2023-07-20T12:23:36;2.47;;;2.28;;
17997;SDS011;9124;48.144;17.098;2023-07-20T12:28:08;2.80;;;2.60;;
17997;SDS011;9124;48.144;17.098;2023-07-20T12:32:37;3.40;;;2.50;;
17997;SDS011;9124;48.144;17.098;2023-07-20T12:37:04;2.95;;;2.38;;
17997;SDS011;9124;48.144;17.098;2023-07-20T12:41:30;5.43;;;2.88;;
17997;SDS011;9124;48.144;17.098;2023-07-20T12:45:57;4.53;;;2.50;;
17997;SDS011;9124;48.144;17.098;2023-07-20T12:50:23;3.65;;;2.60;;
17997;SDS011;9124;48.144;17.098;2023-07-20T12:54:50;3.00;;;2.75;;
17997;SDS011;9124;48.144;17.098;2023-07-20T12:59:16;4.55;;;3.13;;
17997;SDS011;9124;48.144;17.098;2023-07-20T13:03:43;4.20;;;2.72;;
17997;SDS011;9124;48.144;17.098;2023-07-20T13:08:10;3.20;;;2.88;;
17997;SDS011;9124;48.144;17.098;2023-07-20T13:12:37;6.68;;;2.53;;
17997;SDS011;9124;48.144;17.098;2023-07-20T13:17:05;3.38;;;3.10;;
17997;SDS011;9124;48.144;17.098;2023-07-20T13:21:31;3.75;;;3.15;;
17997;SDS011;9124;48.144;17.098;2023-07-20T13:25:57;6.75;;;2.67;;
17997;SDS011;9124;48.144;17.098;2023-07-20T13:30:24;3.33;;;2.42;;
17997;SDS011;9124;48.144;17.098;2023-07-20T13:34:51;3.65;;;2.08;;
17997;SDS011;9124;48.144;17.098;2023-07-20T13:39:17;10.88;;;2.08;;
17997;SDS011;9124;48.144;17.098;2023-07-20T13:43:44;5.68;;;2.38;;
17997;SDS011;9124;48.144;17.098;2023-07-20T13:48:11;5.10;;;2.45;;
17997;SDS011;9124;48.144;17.098;2023-07-20T13:52:37;5.93;;;2.20;;
17997;SDS011;9124;48.144;17.098;2023-07-20T13:57:05;6.90;;;2.60;;
17997;SDS011;9124;48.144;17.098;2023-07-20T14:01:31;9.05;;;2.65;;
17997;SDS011;9124;48.144;17.098;2023-07-20T14:05:59;5.88;;;2.67;;
17997;SDS011;9124;48.144;17.098;2023-07-20T14:10:26;7.63;;;2.25;;
17997;SDS011;9124;48.144;17.098;2023-07-20T14:14:53;3.13;;;2.60;;
17997;SDS011;9124;48.144;17.098;2023-07-20T14:19:21;4.57;;;2.70;;
17997;SDS011;9124;48.144;17.098;2023-07-20T14:23:48;2.83;;;2.08;;
17997;SDS011;9124;48.144;17.098;2023-07-20T14:28:21;2.92;;;2.13;;
17997;SDS011;9124;48.144;17.098;2023-07-20T14:32:48;2.28;;;1.85;;
17997;SDS011;9124;48.144;17.098;2023-07-20T14:37:14;2.03;;;1.92;;
17997;SDS011;9124;48.144;17.098;2023-07-20T14:41:40;9.05;;;2.17;;
17997;SDS011;9124;48.144;17.098;2023-07-20T14:46:07;2.08;;;1.83;;
17997;SDS011;9124;48.144;17.098;2023-07-20T14:50:34;5.38;;;2.35;;
17997;SDS011;9124;48.144;17.098;2023-07-20T14:55:01;2.60;;;2.40;;
17997;SDS011;9124;48.144;17.098;2023-07-20T14:59:28;4.88;;;2.25;;
17997;SDS011;9124;48.144;17.098;2023-07-20T15:03:54;2.55;;;1.77;;
17997;SDS011;9124;48.144;17.098;2023-07-20T15:08:22;4.50;;;2.13;;
17997;SDS011;9124;48.144;17.098;2023-07-20T15:12:49;4.57;;;2.15;;
17997;SDS011;9124;48.144;17.098;2023-07-20T15:17:16;2.38;;;2.17;;
17997;SDS011;9124;48.144;17.098;2023-07-20T15:21:42;4.80;;;2.20;;
17997;SDS011;9124;48.144;17.098;2023-07-20T15:26:09;2.83;;;2.13;;
17997;SDS011;9124;48.144;17.098;2023-07-20T15:30:39;2.13;;;2.03;;
17997;SDS011;9124;48.144;17.098;2023-07-20T15:35:06;3.97;;;2.00;;
17997;SDS011;9124;48.144;17.098;2023-07-20T15:39:33;2.30;;;2.17;;
17997;SDS011;9124;48.144;17.098;2023-07-20T15:43:59;2.72;;;2.10;;
17997;SDS011;9124;48.144;17.098;2023-07-20T15:48:26;5.53;;;1.90;;
17997;SDS011;9124;48.144;17.098;2023-07-20T15:52:52;1.98;;;1.88;;
17997;SDS011;9124;48.144;17.098;2023-07-20T15:57:20;3.90;;;1.92;;
17997;SDS011;9124;48.144;17.098;2023-07-20T16:01:46;2.75;;;2.05;;
17997;SDS011;9124;48.144;17.098;2023-07-20T16:06:21;3.38;;;2.30;;
17997;SDS011;9124;48.144;17.098;2023-07-20T16:10:48;2.47;;;2.10;;
17997;SDS011;9124;48.144;17.098;2023-07-20T16:15:14;2.15;;;1.95;;
17997;SDS011;9124;48.144;17.098;2023-07-20T16:19:41;6.90;;;1.90;;
17997;SDS011;9124;48.144;17.098;2023-07-20T16:24:07;2.28;;;2.05;;
17997;SDS011;9124;48.144;17.098;2023-07-20T16:28:34;2.38;;;2.17;;
17997;SDS011;9124;48.144;17.098;2023-07-20T16:33:00;1.73;;;1.63;;
17997;SDS011;9124;48.144;17.098;2023-07-20T16:37:27;2.10;;;1.90;;
17997;SDS011;9124;48.144;17.098;2023-07-20T16:41:53;4.57;;;2.30;;
17997;SDS011;9124;48.144;17.098;2023-07-20T16:46:19;5.88;;;2.30;;
17997;SDS011;9124;48.144;17.098;2023-07-20T16:50:46;5.13;;;1.73;;
17997;SDS011;9124;48.144;17.098;2023-07-20T16:55:12;2.22;;;2.03;;
17997;SDS011;9124;48.144;17.098;2023-07-20T16:59:39;5.57;;;2.30;;
17997;SDS011;9124;48.144;17.098;2023-07-20T17:04:06;3.50;;;2.08;;
17997;SDS011;9124;48.144;17.098;2023-07-20T17:08:32;1.80;;;1.70;;
17997;SDS011;9124;48.144;17.098;2023-07-20T17:12:59;2.95;;;2.10;;
17997;SDS011;9124;48.144;17.098;2023-07-20T17:17:25;2.33;;;2.20;;
17997;SDS011;9124;48.144;17.098;2023-07-20T17:21:52;3.05;;;2.65;;
17997;SDS011;9124;48.144;17.098;2023-07-20T17:26:18;6.38;;;2.20;;
17997;SDS011;9124;48.144;17.098;2023-07-20T17:30:45;7.20;;;2.28;;
17997;SDS011;9124;48.144;17.098;2023-07-20T17:35:11;6.72;;;2.00;;
17997;SDS011;9124;48.144;17.098;2023-07-20T17:39:39;2.22;;;2.00;;
17997;SDS011;9124;48.144;17.098;2023-07-20T17:44:05;3.42;;;2.40;;
17997;SDS011;9124;48.144;17.098;2023-07-20T17:48:32;5.38;;;2.33;;
17997;SDS011;9124;48.144;17.098;2023-07-20T17:52:58;8.93;;;2.17;;
17997;SDS011;9124;48.144;17.098;2023-07-20T17:57:25;2.78;;;2.53;;
17997;SDS011;9124;48.144;17.098;2023-07-20T18:01:51;2.00;;;1.90;;
17997;SDS011;9124;48.144;17.098;2023-07-20T18:06:18;7.35;;;2.50;;
17997;SDS011;9124;48.144;17.098;2023-07-20T18:10:44;7.22;;;2.72;;
17997;SDS011;9124;48.144;17.098;2023-07-20T18:15:11;2.67;;;2.47;;
17997;SDS011;9124;48.144;17.098;2023-07-20T18:19:37;3.05;;;2.25;;
17997;SDS011;9124;48.144;17.098;2023-07-20T18:24:04;5.05;;;2.45;;
17997;SDS011;9124;48.144;17.098;2023-07-20T18:28:30;4.63;;;2.40;;
17997;SDS011;9124;48.144;17.098;2023-07-20T18:32:57;3.05;;;1.80;;
17997;SDS011;9124;48.144;17.098;2023-07-20T18:37:24;4.22;;;2.40;;
17997;SDS011;9124;48.144;17.098;2023-07-20T18:41:50;2.30;;;2.10;;
17997;SDS011;9124;48.144;17.098;2023-07-20T18:46:16;7.57;;;2.63;;
17997;SDS011;9124;48.144;17.098;2023-07-20T18:50:45;3.25;;;2.45;;
17997;SDS011;9124;48.144;17.098;2023-07-20T18:55:12;5.25;;;2.60;;
17997;SDS011;9124;48.144;17.098;2023-07-20T18:59:39;7.95;;;2.88;;
17997;SDS011;9124;48.144;17.098;2023-07-20T19:04:07;3.78;;;2.65;;
17997;SDS011;9124;48.144;17.098;2023-07-20T19:08:34;4.72;;;2.65;;
17997;SDS011;9124;48.144;17.098;2023-07-20T19:13:00;5.63;;;2.80;;
17997;SDS011;9124;48.144;17.098;2023-07-20T19:17:27;7.57;;;3.30;;
17997;SDS011;9124;48.144;17.098;2023-07-20T19:21:55;4.82;;;3.30;;
17997;SDS011;9124;48.144;17.098;2023-07-20T19:26:21;4.15;;;3.30;;
17997;SDS011;9124;48.144;17.098;2023-07-20T19:30:49;3.88;;;2.90;;
17997;SDS011;9124;48.144;17.098;2023-07-20T19:35:15;6.18;;;2.83;;
17997;SDS011;9124;48.144;17.098;2023-07-20T19:39:42;4.68;;;3.03;;
17997;SDS011;9124;48.144;17.098;2023-07-20T19:44:08;7.82;;;3.10;;
17997;SDS011;9124;48.144;17.098;2023-07-20T19:48:35;6.20;;;3.30;;
17997;SDS011;9124;48.144;17.098;2023-07-20T19:53:02;8.27;;;2.97;;
17997;SDS011;9124;48.144;17.098;2023-07-20T19:57:29;3.92;;;3.38;;
17997;SDS011;9124;48.144;17.098;2023-07-20T20:01:57;4.25;;;3.50;;
17997;SDS011;9124;48.144;17.098;2023-07-20T20:06:24;4.60;;;4.30;;
17997;SDS011;9124;48.144;17.098;2023-07-20T20:10:50;7.78;;;3.55;;
17997;SDS011;9124;48.144;17.098;2023-07-20T20:15:16;9.90;;;3.05;;
17997;SDS011;9124;48.144;17.098;2023-07-20T20:19:43;7.05;;;2.90;;
17997;SDS011;9124;48.144;17.098;2023-07-20T20:24:10;5.38;;;2.45;;
17997;SDS011;9124;48.144;17.098;2023-07-20T20:41:10;5.82;;;2.40;;
17997;SDS011;9124;48.144;17.098;2023-07-20T20:45:36;5.60;;;2.20;;
17997;SDS011;9124;48.144;17.098;2023-07-20T20:50:03;2.72;;;2.28;;
17997;SDS011;9124;48.144;17.098;2023-07-20T20:54:29;3.45;;;2.40;;
17997;SDS011;9124;48.144;17.098;2023-07-20T20:58:56;2.60;;;2.13;;
17997;SDS011;9124;48.144;17.098;2023-07-20T21:03:22;6.43;;;2.28;;
17997;SDS011;9124;48.144;17.098;2023-07-20T21:07:49;4.95;;;2.35;;
17997;SDS011;9124;48.144;17.098;2023-07-20T21:12:16;4.13;;;2.47;;
17997;SDS011;9124;48.144;17.098;2023-07-20T21:16:42;1.98;;;1.88;;
17997;SDS011;9124;48.144;17.098;2023-07-20T21:21:09;3.78;;;2.42;;
17997;SDS011;9124;48.144;17.098;2023-07-20T21:25:35;2.55;;;2.30;;
17997;SDS011;9124;48.144;17.098;2023-07-20T21:30:02;10.20;;;2.50;;
17997;SDS011;9124;48.144;17.098;2023-07-20T21:34:29;2.63;;;2.10;;
17997;SDS011;9124;48.144;17.098;2023-07-20T21:38:55;2.85;;;2.20;;
17997;SDS011;9124;48.144;17.098;2023-07-20T21:43:23;6.85;;;2.28;;
17997;SDS011;9124;48.144;17.098;2023-07-20T21:47:49;3.80;;;1.92;;
17997;SDS011;9124;48.144;17.098;2023-07-20T21:52:16;2.85;;;2.10;;
17997;SDS011;9124;48.144;17.098;2023-07-20T21:56:42;7.38;;;1.88;;
17997;SDS011;9124;48.144;17.098;2023-07-20T22:01:09;5.25;;;1.90;;
17997;SDS011;9124;48.144;17.098;2023-07-20T22:05:35;3.25;;;1.88;;
17997;SDS011;9124;48.144;17.098;2023-07-20T22:10:06;4.38;;;2.13;;
17997;SDS011;9124;48.144;17.098;2023-07-20T22:14:33;6.85;;;2.10;;
17997;SDS011;9124;48.144;17.098;2023-07-20T22:19:00;3.10;;;2.28;;
17997;SDS011;9124;48.144;17.098;2023-07-20T22:23:27;1.92;;;1.83;;
17997;SDS011;9124;48.144;17.098;2023-07-20T22:27:54;1.73;;;1.63;;
17997;SDS011;9124;48.144;17.098;2023-07-20T22:32:20;3.78;;;1.95;;
17997;SDS011;9124;48.144;17.098;2023-07-20T22:36:47;3.72;;;1.98;;
17997;SDS011;9124;48.144;17.098;2023-07-20T22:41:14;4.78;;;1.70;;
17997;SDS011;9124;48.144;17.098;2023-07-20T22:45:41;1.80;;;1.70;;
17997;SDS011;9124;48.144;17.098;2023-07-20T22:50:07;4.57;;;2.47;;
17997;SDS011;9124;48.144;17.098;2023-07-20T22:54:34;7.40;;;2.28;;
17997;SDS011;9124;48.144;17.098;2023-07-20T22:59:00;2.90;;;2.05;;
17997;SDS011;9124;48.144;17.098;2023-07-20T23:03:27;4.43;;;2.20;;
17997;SDS011;9124;48.144;17.098;2023-07-20T23:07:53;7.40;;;2.10;;
17997;SDS011;9124;48.144;17.098;2023-07-20T23:12:20;2.25;;;2.00;;
17997;SDS011;9124;48.144;17.098;2023-07-20T23:16:46;4.38;;;2.10;;
17997;SDS011;9124;48.144;17.098;2023-07-20T23:21:13;2.00;;;1.80;;
17997;SDS011;9124;48.144;17.098;2023-07-20T23:25:39;2.03;;;1.90;;
17997;SDS011;9124;48.144;17.098;2023-07-20T23:30:06;5.72;;;1.73;;
17997;SDS011;9124;48.144;17.098;2023-07-20T23:34:33;3.55;;;1.80;;
17997;SDS011;9124;48.144;17.098;2023-07-20T23:39:00;5.05;;;2.08;;
17997;SDS011;9124;48.144;17.098;2023-07-20T23:43:27;2.00;;;1.90;;
17997;SDS011;9124;48.144;17.098;2023-07-20T23:47:54;3.95;;;2.15;;
17997;SDS011;9124;48.144;17.098;2023-07-20T23:52:20;2.63;;;1.98;;
17997;SDS011;9124;48.144;17.098;2023-07-20T23:56:47;5.57;;;2.30;;
